This is the latest recevied weather packets stored in our database for station/object EB1TR-13. If no packets are shown the sender has not sent any weather packets the latest 10 day(s).
| Time | Temp. | Humidity | Pressure | Rain* | Wind** | Luminosity | Snow |
|---|---|---|---|---|---|---|---|
| 1787738288 | 22.78° C | 79% | 1007 hPa | 0 mm | - | 0 W/m² | - |
| 1787737388 | 22.78° C | 78% | 1007 hPa | 0 mm | - | 0 W/m² | - |
| 1787736488 | 22.22° C | 82% | 1008 hPa | 0 mm | - | 0 W/m² | - |
| 1787735588 | 21.11° C | 88% | 1008 hPa | 0 mm | - | 0 W/m² | - |
| 1787734689 | 20° C | 87% | 1007 hPa | 0 mm | - | 0 W/m² | - |
| 1787733788 | 19.44° C | 91% | 1007 hPa | 0 mm | - | 0 W/m² | - |
| 1787732889 | 18.89° C | 94% | 1008 hPa | 0 mm | - | 0 W/m² | - |
| 1787731988 | 18.89° C | 95% | 1008 hPa | 0 mm | - | 0 W/m² | - |
| 1787731088 | 18.89° C | 95% | 1008 hPa | 0 mm | - | 0 W/m² | - |
| 1787730188 | 18.33° C | 96% | 1008 hPa | 0 mm | - | 0 W/m² | - |
| 1787729288 | 18.33° C | 96% | 1009 hPa | 0 mm | - | 0 W/m² | - |
| 1787728388 | 17.78° C | 96% | 1009 hPa | 0 mm | - | 0 W/m² | - |
| 1787727488 | 17.78° C | 96% | 1009 hPa | 0 mm | - | 0 W/m² | - |
| 1787726589 | 17.78° C | 96% | 1009 hPa | 0 mm | - | 0 W/m² | - |
| 1787725688 | 17.78° C | 96% | 1009 hPa | 0 mm | - | 0 W/m² | - |
| 1787724788 | 17.78° C | 97% | 1009 hPa | 0 mm | - | 0 W/m² | - |
| 1787723888 | 17.78° C | 97% | 1009 hPa | 0 mm | - | 0 W/m² | - |
| 1787722989 | 17.78° C | 97% | 1009 hPa | 0 mm | - | 0 W/m² | - |
| 1787722089 | 17.78° C | 97% | 1010 hPa | 0 mm | - | 0 W/m² | - |
| 1787721189 | 17.78° C | 97% | 1010 hPa | 0 mm | - | 0 W/m² | - |
| 1787720288 | 17.78° C | 97% | 1010 hPa | 0 mm | - | 0 W/m² | - |
| 1787719388 | 17.78° C | 96% | 1011 hPa | 0 mm | - | 0 W/m² | - |
| 1787718488 | 17.78° C | 96% | 1011 hPa | 0 mm | - | 0 W/m² | - |
| 1787717588 | 17.78° C | 96% | 1011 hPa | 0 mm | - | 0 W/m² | - |
| 1787716688 | 17.78° C | 96% | 1011 hPa | 0 mm | - | 0 W/m² | - |
* Rain latest hour (hover to see other rain measurements)
** Current wind speed in m/s (hover to see current wind gust speed)